createdAt,value
2022-12-19T00:00:17.028Z,15.07
2022-12-19T00:03:05.967Z,14.20
2022-12-19T00:05:44.199Z,15.40
2022-12-19T00:08:17.355Z,17.13
2022-12-19T00:10:56.220Z,16.37
2022-12-19T00:13:26.647Z,16.43
2022-12-19T00:15:59.989Z,16.27
2022-12-19T00:18:28.729Z,16.50
2022-12-19T00:20:59.977Z,15.13
2022-12-19T00:23:31.035Z,15.23
2022-12-19T00:26:09.697Z,16.77
2022-12-19T00:28:39.043Z,15.43
2022-12-19T00:31:08.312Z,14.33
2022-12-19T00:33:43.514Z,13.97
2022-12-19T00:36:24.286Z,15.00
2022-12-19T00:38:57.914Z,14.93
2022-12-19T00:41:35.392Z,14.50
2022-12-19T00:44:10.203Z,14.43
2022-12-19T00:46:39.180Z,14.93
2022-12-19T00:49:07.975Z,15.67
2022-12-19T00:51:37.877Z,15.33
2022-12-19T00:54:12.359Z,15.23
2022-12-19T00:56:41.916Z,14.60
2022-12-19T00:59:11.008Z,12.90
2022-12-19T01:01:42.053Z,14.30
2022-12-19T01:04:28.256Z,15.93
2022-12-19T01:07:01.921Z,13.13
2022-12-19T01:09:35.229Z,14.93
2022-12-19T01:12:33.873Z,14.43
2022-12-19T01:15:04.888Z,14.90
2022-12-19T01:17:37.026Z,18.23
2022-12-19T01:20:19.111Z,16.83
2022-12-19T01:23:00.513Z,16.40
2022-12-19T01:25:29.636Z,15.83
2022-12-19T01:27:58.517Z,17.07
2022-12-19T01:30:29.175Z,18.93
2022-12-19T01:33:00.846Z,18.93
2022-12-19T01:35:29.797Z,18.23
2022-12-19T01:38:06.569Z,19.10
2022-12-19T01:40:48.114Z,16.73
2022-12-19T01:43:17.598Z,18.93
2022-12-19T01:45:50.844Z,18.67
2022-12-19T01:48:28.365Z,17.63
2022-12-19T01:51:01.371Z,20.07
2022-12-19T01:53:46.438Z,18.40
2022-12-19T01:56:29.201Z,17.13
2022-12-19T01:59:06.511Z,19.93
2022-12-19T02:01:51.011Z,18.80
2022-12-19T02:04:24.893Z,19.20
2022-12-19T02:06:58.413Z,17.10
2022-12-19T02:09:27.827Z,18.00
2022-12-19T02:11:58.727Z,17.63
2022-12-19T02:14:29.205Z,19.73
2022-12-19T02:17:05.880Z,18.53
2022-12-19T02:19:58.985Z,16.43
2022-12-19T02:22:41.364Z,18.17
2022-12-19T02:25:31.419Z,17.33
2022-12-19T02:28:38.681Z,17.10
2022-12-19T02:31:17.871Z,16.80
2022-12-19T02:34:08.458Z,17.03
2022-12-19T02:36:46.829Z,16.97
2022-12-19T02:39:26.573Z,15.77
2022-12-19T02:41:59.574Z,15.87
2022-12-19T02:44:33.352Z,16.10
2022-12-19T02:47:05.459Z,16.83
2022-12-19T02:49:37.163Z,16.00
2022-12-19T02:52:12.908Z,17.13
2022-12-19T02:54:46.494Z,16.57
2022-12-19T02:57:24.410Z,15.63
2022-12-19T03:00:06.172Z,16.27
2022-12-19T03:02:51.191Z,16.17
2022-12-19T03:05:42.076Z,15.57
2022-12-19T03:08:24.378Z,15.87
2022-12-19T03:11:00.388Z,14.60
2022-12-19T03:13:34.217Z,14.60
2022-12-19T03:16:08.333Z,15.37
2022-12-19T03:18:38.717Z,16.37
2022-12-19T03:21:15.532Z,17.53
2022-12-19T03:23:53.181Z,17.40
2022-12-19T03:26:31.140Z,15.97
2022-12-19T03:29:07.812Z,16.27
2022-12-19T03:31:38.982Z,15.83
2022-12-19T03:34:16.838Z,15.67
2022-12-19T03:36:54.663Z,17.20
2022-12-19T03:39:29.896Z,16.80
2022-12-19T03:42:22.287Z,15.83
2022-12-19T03:44:54.034Z,14.77
2022-12-19T03:47:34.500Z,16.33
2022-12-19T03:50:07.081Z,16.40
2022-12-19T03:52:45.466Z,16.63
2022-12-19T03:55:24.424Z,14.57
2022-12-19T03:57:58.317Z,14.63
2022-12-19T04:00:29.740Z,16.33
2022-12-19T04:03:00.698Z,15.77
2022-12-19T04:05:30.087Z,15.50
2022-12-19T04:08:06.158Z,16.00
2022-12-19T04:10:48.001Z,18.45
2022-12-19T04:13:27.027Z,15.13
2022-12-19T04:16:06.942Z,17.77
2022-12-19T04:18:37.620Z,18.60
2022-12-19T04:21:15.119Z,12.47
2022-12-19T04:23:49.708Z,16.60
2022-12-19T04:26:31.070Z,10.72
2022-12-19T04:29:04.055Z,16.53
2022-12-19T04:31:33.022Z,17.60
2022-12-19T04:34:02.316Z,17.50
2022-12-19T04:36:32.473Z,16.25
2022-12-19T04:39:01.498Z,16.30
2022-12-19T04:41:31.065Z,16.90
2022-12-19T04:44:00.537Z,16.30
2022-12-19T04:46:32.821Z,16.60
2022-12-19T04:49:02.617Z,17.20
2022-12-19T04:51:31.752Z,15.47
2022-12-19T04:54:02.936Z,15.37
2022-12-19T04:56:31.763Z,14.73
2022-12-19T04:59:02.131Z,18.90
2022-12-19T05:01:31.545Z,17.37
2022-12-19T05:04:04.349Z,18.23
2022-12-19T05:06:34.035Z,20.40
2022-12-19T05:09:03.296Z,20.77
2022-12-19T05:11:32.823Z,19.97
2022-12-19T05:14:02.313Z,20.40
2022-12-19T05:16:31.504Z,19.53
2022-12-19T05:19:01.927Z,19.10
2022-12-19T05:21:31.005Z,21.17
2022-12-19T05:24:00.362Z,19.77
2022-12-19T05:26:29.314Z,21.77
2022-12-19T05:28:58.445Z,19.63
2022-12-19T05:31:27.545Z,20.37
2022-12-19T05:33:56.469Z,19.30
2022-12-19T05:36:32.127Z,18.97
2022-12-19T05:39:04.312Z,21.27
2022-12-19T05:41:33.376Z,21.30
2022-12-19T05:44:03.200Z,19.17
2022-12-19T05:46:32.396Z,21.10
2022-12-19T05:49:01.425Z,20.97
2022-12-19T05:51:30.859Z,18.93
2022-12-19T05:54:02.888Z,21.47
2022-12-19T05:56:31.918Z,21.10
2022-12-19T05:59:03.683Z,19.13
2022-12-19T06:01:37.068Z,20.77
2022-12-19T06:04:07.877Z,21.80
2022-12-19T06:06:38.707Z,24.43
2022-12-19T06:09:08.960Z,23.27
2022-12-19T06:11:38.143Z,22.77
2022-12-19T06:14:07.164Z,23.57
2022-12-19T06:16:39.624Z,21.10
2022-12-19T06:19:09.512Z,20.13
2022-12-19T06:21:45.449Z,20.90
2022-12-19T06:24:18.086Z,21.70
2022-12-19T06:26:47.360Z,22.55
2022-12-19T06:29:18.618Z,21.13
2022-12-19T06:31:47.461Z,21.10
2022-12-19T06:34:46.955Z,21.30
2022-12-19T06:37:09.195Z,21.17
2022-12-19T06:39:38.483Z,22.33
2022-12-19T06:42:24.886Z,22.97
2022-12-19T06:44:57.286Z,25.23
2022-12-19T06:47:28.545Z,22.27
2022-12-19T06:49:58.907Z,25.63
2022-12-19T06:52:27.666Z,22.10
2022-12-19T06:54:57.277Z,21.93
2022-12-19T06:57:26.894Z,23.60
2022-12-19T06:59:57.969Z,22.27
2022-12-19T07:02:31.392Z,22.47
2022-12-19T07:05:10.166Z,21.00
2022-12-19T07:07:40.752Z,22.97
2022-12-19T07:10:12.887Z,23.93
2022-12-19T07:12:41.838Z,23.43
2022-12-19T07:15:12.937Z,21.70
2022-12-19T07:17:42.179Z,23.20
2022-12-19T07:20:16.070Z,23.73
2022-12-19T07:22:45.894Z,25.02
2022-12-19T07:25:17.146Z,23.70
2022-12-19T07:27:47.745Z,23.73
2022-12-19T07:30:17.407Z,25.60
2022-12-19T07:32:46.484Z,25.53
2022-12-19T07:35:17.863Z,25.17
2022-12-19T07:37:53.840Z,22.87
2022-12-19T07:40:23.402Z,23.25
2022-12-19T07:42:52.406Z,21.50
2022-12-19T07:45:21.413Z,20.03
2022-12-19T07:47:53.414Z,23.63
2022-12-19T07:50:22.303Z,24.97
2022-12-19T07:52:51.229Z,24.83
2022-12-19T07:55:23.767Z,23.13
2022-12-19T07:57:55.841Z,25.03
2022-12-19T08:00:24.866Z,26.50
2022-12-19T08:02:53.683Z,23.87
2022-12-19T08:05:24.209Z,21.50
2022-12-19T08:07:56.476Z,26.40
2022-12-19T08:10:25.246Z,21.80
2022-12-19T08:12:54.001Z,23.80
2022-12-19T08:15:25.403Z,23.47
2022-12-19T08:17:56.027Z,21.30
2022-12-19T08:20:24.763Z,24.80
2022-12-19T08:22:53.580Z,25.77
2022-12-19T08:25:22.703Z,24.50
2022-12-19T08:27:51.476Z,22.37
2022-12-19T08:30:20.276Z,21.13
2022-12-19T08:32:49.097Z,23.17
2022-12-19T08:35:19.155Z,21.43
2022-12-19T08:37:48.303Z,21.37
2022-12-19T08:40:18.195Z,20.50
2022-12-19T08:42:47.085Z,22.10
2022-12-19T08:45:18.741Z,22.13
2022-12-19T08:47:47.897Z,20.73
2022-12-19T08:50:19.380Z,21.00
2022-12-19T08:52:48.178Z,22.10
2022-12-19T08:55:18.226Z,21.20
2022-12-19T08:57:49.475Z,20.40
2022-12-19T09:00:20.243Z,20.70
2022-12-19T09:02:55.214Z,21.70
2022-12-19T09:08:12.453Z,19.33
2022-12-19T09:10:47.659Z,22.23
2022-12-19T09:13:17.601Z,21.77
2022-12-19T09:15:48.762Z,21.27
2022-12-19T09:18:18.405Z,22.63
2022-12-19T09:20:53.097Z,23.13
2022-12-19T09:23:22.790Z,21.33
2022-12-19T09:25:51.989Z,21.03
2022-12-19T09:28:28.485Z,23.33
2022-12-19T09:30:58.546Z,23.10
2022-12-19T09:33:27.963Z,23.00
2022-12-19T09:35:57.468Z,18.53
2022-12-19T09:38:29.387Z,20.37
2022-12-19T09:44:16.184Z,22.30
2022-12-19T09:46:51.582Z,22.03
2022-12-19T09:49:24.405Z,23.50
2022-12-19T09:52:00.573Z,21.43
2022-12-19T09:54:35.564Z,22.00
2022-12-19T09:57:12.352Z,22.07
2022-12-19T09:59:50.135Z,23.23
2022-12-19T10:02:39.105Z,25.63
2022-12-19T10:05:46.623Z,23.17
2022-12-19T10:08:23.653Z,24.37
2022-12-19T10:12:39.193Z,23.83
2022-12-19T10:14:21.116Z,22.47
2022-12-19T10:17:23.815Z,22.13
2022-12-19T10:20:12.037Z,22.10
2022-12-19T10:22:52.710Z,28.83
2022-12-19T10:25:43.119Z,26.73
2022-12-19T10:28:32.683Z,27.80
2022-12-19T10:31:17.268Z,27.87
2022-12-19T10:33:57.826Z,26.00
2022-12-19T10:37:11.918Z,21.30
2022-12-19T10:39:29.172Z,21.23
2022-12-19T10:42:08.154Z,21.50
2022-12-19T10:44:40.297Z,21.53
2022-12-19T10:47:15.732Z,20.63
2022-12-19T10:49:44.816Z,23.13
2022-12-19T10:52:47.198Z,20.27
2022-12-19T10:55:47.522Z,18.97
2022-12-19T10:58:22.779Z,19.65
2022-12-19T11:01:16.877Z,19.37
2022-12-19T11:03:53.407Z,18.52
2022-12-19T11:06:44.119Z,18.70
2022-12-19T11:09:30.416Z,18.60
2022-12-19T11:13:32.266Z,18.10
2022-12-19T11:20:42.165Z,18.13
2022-12-19T11:27:29.564Z,17.50
2022-12-19T11:29:34.765Z,16.43
2022-12-19T11:29:37.684Z,17.27
2022-12-19T11:29:41.739Z,17.90
2022-12-19T11:32:44.859Z,17.60
2022-12-19T11:35:24.810Z,16.87
2022-12-19T11:38:07.777Z,17.40
2022-12-19T11:43:47.992Z,15.40
2022-12-19T11:49:11.297Z,14.97
2022-12-19T11:51:49.088Z,18.60
2022-12-19T11:54:26.859Z,18.47
2022-12-19T11:57:12.114Z,16.90
2022-12-19T11:59:42.988Z,17.30
2022-12-19T12:02:39.201Z,17.07
2022-12-19T12:05:44.378Z,17.97
2022-12-19T12:11:05.309Z,16.87
2022-12-19T12:19:18.836Z,13.70
2022-12-19T12:24:53.591Z,17.60
2022-12-19T12:31:04.227Z,16.65
2022-12-19T12:31:18.864Z,16.63
2022-12-19T12:31:47.164Z,16.00
2022-12-19T12:31:47.730Z,18.73
2022-12-19T12:32:04.001Z,17.07
2022-12-19T12:35:35.105Z,16.63
2022-12-19T12:39:35.775Z,16.77
2022-12-19T12:42:16.111Z,18.75
2022-12-19T12:44:51.127Z,18.80
2022-12-19T12:47:24.112Z,17.43
2022-12-19T12:50:16.735Z,17.57
2022-12-19T12:52:57.596Z,17.43
2022-12-19T12:55:29.972Z,18.57
2022-12-19T12:57:59.373Z,16.70
2022-12-19T13:00:30.426Z,16.57
2022-12-19T13:03:11.258Z,19.30
2022-12-19T13:06:03.272Z,16.53
2022-12-19T13:08:49.091Z,16.30
2022-12-19T13:12:06.125Z,17.43
2022-12-19T13:14:50.160Z,16.67
2022-12-19T13:17:47.414Z,16.48
2022-12-19T13:20:48.260Z,16.33
2022-12-19T13:23:34.148Z,16.63
2022-12-19T13:26:04.798Z,16.37
2022-12-19T13:28:42.978Z,16.23
2022-12-19T13:31:22.767Z,17.50
2022-12-19T13:34:19.224Z,16.93
2022-12-19T13:39:50.749Z,14.67
2022-12-19T13:40:13.575Z,16.43
2022-12-19T13:43:30.688Z,17.03
2022-12-19T13:46:02.136Z,17.67
2022-12-19T13:48:34.003Z,21.30
2022-12-19T13:51:10.934Z,19.77
2022-12-19T13:53:45.027Z,17.90
2022-12-19T13:56:19.008Z,17.90
2022-12-19T13:58:53.413Z,18.45
2022-12-19T14:01:29.476Z,17.70
2022-12-19T14:04:07.884Z,18.80
2022-12-19T14:06:43.162Z,20.10
2022-12-19T14:11:28.262Z,19.73
2022-12-19T14:13:48.157Z,18.70
2022-12-19T14:15:58.734Z,17.77
2022-12-19T14:18:45.039Z,18.17
2022-12-19T14:22:05.734Z,19.13
2022-12-19T14:24:25.925Z,18.57
2022-12-19T14:28:20.125Z,19.37
2022-12-19T14:30:30.464Z,20.27
2022-12-19T14:33:44.776Z,21.27
2022-12-19T14:36:09.964Z,22.17
2022-12-19T14:39:23.276Z,22.67
2022-12-19T14:42:13.651Z,19.63
2022-12-19T14:53:34.303Z,18.87
2022-12-19T14:53:51.781Z,20.73
2022-12-19T14:54:16.122Z,23.87
2022-12-19T14:57:25.327Z,20.10
2022-12-19T15:01:09.607Z,19.10
2022-12-19T15:03:23.718Z,21.10
2022-12-19T15:07:05.231Z,20.27
2022-12-19T15:10:58.596Z,18.60
2022-12-19T15:14:20.714Z,20.60
2022-12-19T15:15:34.269Z,20.23
2022-12-19T15:18:18.039Z,19.97
2022-12-19T15:21:00.987Z,21.20
2022-12-19T15:23:34.009Z,18.47
2022-12-19T15:26:08.470Z,20.33
2022-12-19T15:28:43.313Z,21.90
2022-12-19T15:31:36.635Z,21.63
2022-12-19T15:34:39.253Z,20.60
2022-12-19T15:37:10.275Z,20.87
2022-12-19T15:39:41.379Z,20.53
2022-12-19T15:42:22.619Z,22.17
2022-12-19T15:44:57.821Z,21.43
2022-12-19T15:47:32.177Z,22.37
2022-12-19T15:50:14.058Z,23.43
2022-12-19T15:55:35.496Z,22.13
2022-12-19T15:58:06.944Z,26.33
2022-12-19T16:00:37.424Z,25.13
2022-12-19T16:03:27.199Z,26.20
2022-12-19T16:05:57.153Z,23.73
2022-12-19T16:08:27.901Z,22.60
2022-12-19T16:11:07.109Z,22.23
2022-12-19T16:13:36.851Z,21.80
2022-12-19T16:16:15.767Z,23.23
2022-12-19T16:18:47.038Z,25.13
2022-12-19T16:21:33.702Z,24.67
2022-12-19T16:24:06.640Z,23.50
2022-12-19T16:26:40.261Z,25.10
2022-12-19T16:29:19.966Z,23.27
2022-12-19T16:31:49.276Z,23.53
2022-12-19T16:34:24.546Z,26.67
2022-12-19T16:36:54.350Z,24.63
2022-12-19T16:39:23.229Z,23.85
2022-12-19T16:41:52.232Z,22.60
2022-12-19T16:44:23.211Z,24.93
2022-12-19T16:46:54.773Z,24.47
2022-12-19T16:49:24.640Z,26.60
2022-12-19T16:51:54.342Z,26.50
2022-12-19T16:54:31.887Z,25.27
2022-12-19T16:57:06.076Z,24.13
2022-12-19T16:59:41.196Z,26.77
2022-12-19T17:02:46.506Z,24.70
2022-12-19T17:05:29.367Z,26.87
2022-12-19T17:08:10.518Z,24.63
2022-12-19T17:10:48.335Z,25.70
2022-12-19T17:13:19.274Z,25.27
2022-12-19T17:15:57.088Z,28.90
2022-12-19T17:18:34.820Z,26.93
2022-12-19T17:21:11.856Z,27.37
2022-12-19T17:23:48.355Z,27.77
2022-12-19T17:26:29.663Z,27.10
2022-12-19T17:28:58.519Z,25.67
2022-12-19T17:31:37.439Z,26.20
2022-12-19T17:34:26.530Z,27.30
2022-12-19T17:36:58.052Z,27.13
2022-12-19T17:39:29.815Z,26.90
2022-12-19T17:42:05.905Z,24.77
2022-12-19T17:44:38.150Z,27.57
2022-12-19T17:47:07.667Z,24.43
2022-12-19T17:49:36.842Z,28.10
2022-12-19T17:52:14.216Z,28.50
2022-12-19T17:54:44.837Z,27.30
2022-12-19T17:57:19.054Z,29.43
2022-12-19T17:59:49.919Z,29.85
2022-12-19T18:02:26.530Z,30.00
2022-12-19T18:05:01.154Z,25.93
2022-12-19T18:07:34.615Z,28.83
2022-12-19T18:10:14.384Z,27.10
2022-12-19T18:12:45.700Z,24.53
2022-12-19T18:15:15.803Z,27.27
2022-12-19T18:17:47.928Z,28.23
2022-12-19T18:20:31.206Z,28.77
2022-12-19T18:23:19.056Z,27.23
2022-12-19T18:25:54.823Z,31.43
2022-12-19T18:28:28.928Z,28.93
2022-12-19T18:31:07.122Z,30.80
2022-12-19T18:33:41.045Z,29.60
2022-12-19T18:36:36.358Z,27.37
2022-12-19T18:41:39.050Z,35.17
2022-12-19T18:44:08.126Z,33.03
2022-12-19T18:46:41.965Z,32.73
2022-12-19T18:49:14.618Z,30.20
2022-12-19T18:51:44.706Z,30.83
2022-12-19T18:54:19.854Z,34.20
2022-12-19T18:56:49.288Z,30.90
2022-12-19T18:59:21.969Z,31.27
2022-12-19T19:01:51.860Z,29.80
2022-12-19T19:04:24.507Z,30.10
2022-12-19T19:06:56.942Z,29.67
2022-12-19T19:09:28.810Z,29.47
2022-12-19T19:15:12.584Z,27.83
2022-12-19T19:17:43.714Z,29.33
2022-12-19T19:20:14.536Z,29.63
2022-12-19T19:22:44.568Z,30.00
2022-12-19T19:25:18.279Z,30.23
2022-12-19T19:27:48.073Z,27.07
2022-12-19T19:30:21.230Z,28.90
2022-12-19T19:32:57.063Z,27.43
2022-12-19T19:35:29.819Z,29.20
2022-12-19T19:38:15.789Z,28.87
2022-12-19T19:40:48.413Z,29.00
2022-12-19T19:43:20.487Z,27.87
2022-12-19T19:45:51.314Z,26.43
2022-12-19T19:48:21.636Z,29.27
2022-12-19T19:50:50.693Z,27.87
2022-12-19T19:53:21.318Z,29.87
2022-12-19T19:55:56.396Z,27.77
2022-12-19T19:58:25.497Z,29.03
2022-12-19T20:00:55.981Z,29.30
2022-12-19T20:03:26.502Z,31.27
2022-12-19T20:06:14.188Z,30.23
2022-12-19T20:08:43.338Z,27.77
2022-12-19T20:11:13.155Z,27.93
2022-12-19T20:13:45.688Z,30.67
2022-12-19T20:16:19.817Z,29.07
2022-12-19T20:18:50.239Z,29.27
2022-12-19T20:21:24.444Z,28.30
2022-12-19T20:23:55.970Z,30.20
2022-12-19T20:26:29.721Z,29.87
2022-12-19T20:28:58.644Z,28.00
2022-12-19T20:31:27.798Z,28.27
2022-12-19T20:33:56.748Z,31.20
2022-12-19T20:36:26.149Z,29.27
2022-12-19T20:38:55.568Z,28.27
2022-12-19T20:41:30.763Z,27.57
2022-12-19T20:44:03.563Z,30.07
2022-12-19T20:46:35.190Z,29.00
2022-12-19T20:49:04.409Z,28.10
2022-12-19T20:51:34.338Z,29.60
2022-12-19T20:54:04.653Z,26.70
2022-12-19T20:56:34.670Z,28.60
2022-12-19T20:59:09.902Z,27.27
2022-12-19T21:01:40.931Z,29.47
2022-12-19T21:04:10.313Z,25.97
2022-12-19T21:06:40.978Z,28.77
2022-12-19T21:09:14.324Z,27.40
2022-12-19T21:11:43.169Z,28.63
2022-12-19T21:14:12.233Z,27.03
2022-12-19T21:16:41.174Z,26.50
2022-12-19T21:19:11.289Z,27.33
2022-12-19T21:21:40.600Z,27.23
2022-12-19T21:24:10.417Z,26.50
2022-12-19T21:26:40.363Z,27.93
2022-12-19T21:29:11.364Z,29.13
2022-12-19T21:31:40.665Z,28.23
2022-12-19T21:34:12.467Z,29.20
2022-12-19T21:36:41.476Z,29.07
2022-12-19T21:39:12.585Z,26.57
2022-12-19T21:41:44.400Z,28.87
2022-12-19T21:44:13.143Z,27.93
2022-12-19T21:46:42.034Z,28.97
2022-12-19T21:49:14.372Z,28.53
2022-12-19T21:51:43.120Z,26.67
2022-12-19T21:54:12.094Z,28.20
2022-12-19T21:56:41.888Z,27.83
2022-12-19T21:59:14.023Z,27.47
2022-12-19T22:01:43.889Z,29.37
2022-12-19T22:04:15.381Z,27.43
2022-12-19T22:06:44.902Z,28.47
2022-12-19T22:09:15.429Z,26.73
2022-12-19T22:11:44.772Z,26.60
2022-12-19T22:14:15.472Z,28.80
2022-12-19T22:16:51.602Z,28.43
2022-12-19T22:19:22.475Z,27.47
2022-12-19T22:21:51.371Z,26.00
2022-12-19T22:24:24.323Z,27.97
2022-12-19T22:26:53.149Z,26.17
2022-12-19T22:29:25.621Z,26.93
2022-12-19T22:31:54.532Z,27.00
2022-12-19T22:34:23.596Z,26.73
2022-12-19T22:36:54.416Z,26.40
2022-12-19T22:39:24.094Z,26.60
2022-12-19T22:41:52.957Z,25.57
2022-12-19T22:44:26.920Z,27.53
2022-12-19T22:46:55.627Z,26.33
2022-12-19T22:49:24.556Z,27.50
2022-12-19T22:51:53.371Z,26.77
2022-12-19T22:54:24.311Z,26.43
2022-12-19T22:56:53.365Z,26.03
2022-12-19T22:59:22.303Z,26.70
2022-12-19T23:01:52.572Z,27.50
2022-12-19T23:04:21.817Z,26.70
2022-12-19T23:06:51.152Z,27.97
2022-12-19T23:09:20.998Z,26.37
2022-12-19T23:11:50.297Z,27.43
2022-12-19T23:14:20.395Z,27.13
2022-12-19T23:16:54.690Z,24.80
2022-12-19T23:19:23.656Z,25.55
2022-12-19T23:21:52.524Z,25.73
2022-12-19T23:24:22.085Z,28.30
2022-12-19T23:26:51.008Z,27.03
2022-12-19T23:29:22.122Z,25.57
2022-12-19T23:31:51.179Z,25.47
2022-12-19T23:34:21.345Z,23.90
2022-12-19T23:39:41.709Z,25.00
2022-12-19T23:42:10.563Z,25.37
2022-12-19T23:44:39.656Z,23.90
2022-12-19T23:47:08.372Z,24.53
2022-12-19T23:49:37.081Z,26.50
2022-12-19T23:52:06.235Z,24.93
2022-12-19T23:54:35.631Z,24.53
2022-12-19T23:57:04.487Z,25.10
2022-12-19T23:59:34.174Z,25.40
